Главная страница
METAR-TAF:

METAR-TAF

Аэропорты :

Каяани, Финляндия

Каяни

широта: 64-17N, долгота: 027-41E, высота над уровнем моря: 143 м

Текущие метеонаблюдения

Эта сводка был подготовлена 43 минут назад, в 14:50 UTC
Ветер 4 Узел от северный
Температура 0°C
Влажность 86%
Давление 1020 hPa
Видимость 10 км и более
Нет облачности ниже 1500 м, и нет кучево-дождевой облачности

METAR: EFKI 221450Z AUTO 35004KT CAVOK 00/M02 Q1020

Время: 18:33 (15:33 UTC)

Прогноз

Эта сводка был подготовлена 55 минут назад, в 14:38 UTC
Прогноз действительный с 22-го 15 UTC до 22-го 21 UTC
Ветер 4 Узел от северный
Видимость 10 км и более
Нет облачности ниже 1500 м, и нет кучево-дождевой облачности

TAF: EFKI 221438Z 2215/2221 36004KT CAVOK

Метеонаблюдения и прогнозы для более 4000 аэропортов (сводки METAR и TAF).

Имеющиеся станции представлены на карте желтыми и красными точками.

Чтобы увидеть название станции, наведите на нее мышь.

Затем щелкните, чтобы увидеть метеонаблюдения и метеопрогнозы.

Управление картой: чтобы увеличить масштаб, щелкните зеленые кнопки с черным крестиком; чтобы уменьшить масштаб, щелкните зеленую кнопку с тире; для просмотра соседних карт щелкайте зеленые стрелки.


METAR-TAF: